sensor_id;sensor_type;location;lat;lon;timestamp;P1;P2;P0
83484;PMS5003;73420;32.678;-85.380;2023-11-19T00:02:23;13;10;
83484;PMS5003;73420;32.678;-85.380;2023-11-19T00:04:49;12;12;
83484;PMS5003;73420;32.678;-85.380;2023-11-19T00:07:14;13;12;
83484;PMS5003;73420;32.678;-85.380;2023-11-19T00:09:39;10;10;
83484;PMS5003;73420;32.678;-85.380;2023-11-19T00:12:10;11;11;
83484;PMS5003;73420;32.678;-85.380;2023-11-19T00:14:30;13;13;
83484;PMS5003;73420;32.678;-85.380;2023-11-19T00:16:56;11;11;
83484;PMS5003;73420;32.678;-85.380;2023-11-19T00:19:21;14;14;
83484;PMS5003;73420;32.678;-85.380;2023-11-19T00:21:46;11;11;
83484;PMS5003;73420;32.678;-85.380;2023-11-19T00:24:12;12;12;
83484;PMS5003;73420;32.678;-85.380;2023-11-19T00:26:37;10;10;
83484;PMS5003;73420;32.678;-85.380;2023-11-19T00:29:02;11;11;
83484;PMS5003;73420;32.678;-85.380;2023-11-19T00:31:28;10;9;
83484;PMS5003;73420;32.678;-85.380;2023-11-19T00:33:53;9;9;
83484;PMS5003;73420;32.678;-85.380;2023-11-19T00:36:19;9;9;
83484;PMS5003;73420;32.678;-85.380;2023-11-19T00:38:44;13;13;
83484;PMS5003;73420;32.678;-85.380;2023-11-19T00:41:10;12;11;
83484;PMS5003;73420;32.678;-85.380;2023-11-19T00:43:35;10;10;
83484;PMS5003;73420;32.678;-85.380;2023-11-19T00:46:01;11;11;
83484;PMS5003;73420;32.678;-85.380;2023-11-19T00:48:26;11;10;
83484;PMS5003;73420;32.678;-85.380;2023-11-19T00:50:51;13;11;
83484;PMS5003;73420;32.678;-85.380;2023-11-19T00:53:17;11;11;
83484;PMS5003;73420;32.678;-85.380;2023-11-19T00:55:42;13;12;
83484;PMS5003;73420;32.678;-85.380;2023-11-19T00:58:08;10;10;
83484;PMS5003;73420;32.678;-85.380;2023-11-19T01:00:34;11;11;
83484;PMS5003;73420;32.678;-85.380;2023-11-19T01:02:59;12;12;
83484;PMS5003;73420;32.678;-85.380;2023-11-19T01:05:24;14;14;
83484;PMS5003;73420;32.678;-85.380;2023-11-19T01:07:50;10;10;
83484;PMS5003;73420;32.678;-85.380;2023-11-19T01:10:15;13;12;
83484;PMS5003;73420;32.678;-85.380;2023-11-19T01:12:41;12;11;
83484;PMS5003;73420;32.678;-85.380;2023-11-19T01:15:06;16;16;
83484;PMS5003;73420;32.678;-85.380;2023-11-19T01:17:31;14;13;
83484;PMS5003;73420;32.678;-85.380;2023-11-19T01:19:57;12;11;
83484;PMS5003;73420;32.678;-85.380;2023-11-19T01:22:22;13;13;
83484;PMS5003;73420;32.678;-85.380;2023-11-19T01:24:48;11;11;
83484;PMS5003;73420;32.678;-85.380;2023-11-19T01:27:13;11;11;
83484;PMS5003;73420;32.678;-85.380;2023-11-19T01:29:39;12;12;
83484;PMS5003;73420;32.678;-85.380;2023-11-19T01:32:04;14;14;
83484;PMS5003;73420;32.678;-85.380;2023-11-19T01:34:30;10;10;
83484;PMS5003;73420;32.678;-85.380;2023-11-19T01:36:55;14;13;
83484;PMS5003;73420;32.678;-85.380;2023-11-19T01:39:20;15;14;
83484;PMS5003;73420;32.678;-85.380;2023-11-19T01:41:46;12;11;
83484;PMS5003;73420;32.678;-85.380;2023-11-19T01:44:11;15;13;
83484;PMS5003;73420;32.678;-85.380;2023-11-19T01:46:37;13;13;
83484;PMS5003;73420;32.678;-85.380;2023-11-19T01:49:02;14;14;
83484;PMS5003;73420;32.678;-85.380;2023-11-19T01:51:27;14;13;
83484;PMS5003;73420;32.678;-85.380;2023-11-19T01:53:53;14;13;
83484;PMS5003;73420;32.678;-85.380;2023-11-19T01:56:18;14;13;
83484;PMS5003;73420;32.678;-85.380;2023-11-19T01:58:44;13;13;
83484;PMS5003;73420;32.678;-85.380;2023-11-19T02:01:13;14;14;
83484;PMS5003;73420;32.678;-85.380;2023-11-19T02:03:35;12;12;
83484;PMS5003;73420;32.678;-85.380;2023-11-19T02:06:00;17;15;
83484;PMS5003;73420;32.678;-85.380;2023-11-19T02:08:26;15;15;
83484;PMS5003;73420;32.678;-85.380;2023-11-19T02:10:51;14;13;
83484;PMS5003;73420;32.678;-85.380;2023-11-19T02:13:16;13;13;
83484;PMS5003;73420;32.678;-85.380;2023-11-19T02:15:42;16;15;
83484;PMS5003;73420;32.678;-85.380;2023-11-19T02:20:33;12;12;
83484;PMS5003;73420;32.678;-85.380;2023-11-19T02:22:58;12;11;
83484;PMS5003;73420;32.678;-85.380;2023-11-19T02:25:25;12;12;
83484;PMS5003;73420;32.678;-85.380;2023-11-19T02:27:51;11;10;
83484;PMS5003;73420;32.678;-85.380;2023-11-19T02:30:15;12;12;
83484;PMS5003;73420;32.678;-85.380;2023-11-19T02:32:41;12;12;
83484;PMS5003;73420;32.678;-85.380;2023-11-19T02:35:06;13;12;
83484;PMS5003;73420;32.678;-85.380;2023-11-19T02:37:31;11;11;
83484;PMS5003;73420;32.678;-85.380;2023-11-19T02:39:56;16;16;
83484;PMS5003;73420;32.678;-85.380;2023-11-19T02:42:22;14;14;
83484;PMS5003;73420;32.678;-85.380;2023-11-19T02:44:47;16;15;
83484;PMS5003;73420;32.678;-85.380;2023-11-19T02:47:13;13;13;
83484;PMS5003;73420;32.678;-85.380;2023-11-19T02:49:38;14;14;
83484;PMS5003;73420;32.678;-85.380;2023-11-19T02:52:04;17;15;
83484;PMS5003;73420;32.678;-85.380;2023-11-19T02:54:29;14;14;
83484;PMS5003;73420;32.678;-85.380;2023-11-19T02:56:54;12;12;
83484;PMS5003;73420;32.678;-85.380;2023-11-19T02:59:19;14;14;
83484;PMS5003;73420;32.678;-85.380;2023-11-19T03:01:45;12;11;
83484;PMS5003;73420;32.678;-85.380;2023-11-19T03:04:10;14;13;
83484;PMS5003;73420;32.678;-85.380;2023-11-19T03:06:36;16;16;
83484;PMS5003;73420;32.678;-85.380;2023-11-19T03:09:01;16;16;
83484;PMS5003;73420;32.678;-85.380;2023-11-19T03:11:27;14;13;
83484;PMS5003;73420;32.678;-85.380;2023-11-19T03:13:54;13;13;
83484;PMS5003;73420;32.678;-85.380;2023-11-19T03:16:18;14;14;
83484;PMS5003;73420;32.678;-85.380;2023-11-19T03:18:44;15;15;
83484;PMS5003;73420;32.678;-85.380;2023-11-19T03:21:09;13;12;
83484;PMS5003;73420;32.678;-85.380;2023-11-19T03:23:34;13;13;
83484;PMS5003;73420;32.678;-85.380;2023-11-19T03:26:00;16;16;
83484;PMS5003;73420;32.678;-85.380;2023-11-19T03:28:25;14;14;
83484;PMS5003;73420;32.678;-85.380;2023-11-19T03:30:50;15;14;
83484;PMS5003;73420;32.678;-85.380;2023-11-19T03:33:16;16;15;
83484;PMS5003;73420;32.678;-85.380;2023-11-19T03:35:42;16;15;
83484;PMS5003;73420;32.678;-85.380;2023-11-19T03:38:07;14;14;
83484;PMS5003;73420;32.678;-85.380;2023-11-19T03:40:33;15;15;
83484;PMS5003;73420;32.678;-85.380;2023-11-19T03:42:58;17;15;
83484;PMS5003;73420;32.678;-85.380;2023-11-19T03:45:23;14;14;
83484;PMS5003;73420;32.678;-85.380;2023-11-19T03:47:49;16;15;
83484;PMS5003;73420;32.678;-85.380;2023-11-19T03:50:19;17;16;
83484;PMS5003;73420;32.678;-85.380;2023-11-19T03:52:40;14;13;
83484;PMS5003;73420;32.678;-85.380;2023-11-19T03:55:06;13;13;
83484;PMS5003;73420;32.678;-85.380;2023-11-19T03:57:31;17;17;
83484;PMS5003;73420;32.678;-85.380;2023-11-19T03:59:57;16;16;
83484;PMS5003;73420;32.678;-85.380;2023-11-19T04:02:22;15;14;
83484;PMS5003;73420;32.678;-85.380;2023-11-19T04:04:47;13;13;
83484;PMS5003;73420;32.678;-85.380;2023-11-19T04:07:13;15;15;
83484;PMS5003;73420;32.678;-85.380;2023-11-19T04:09:38;15;14;
83484;PMS5003;73420;32.678;-85.380;2023-11-19T04:12:04;15;15;
83484;PMS5003;73420;32.678;-85.380;2023-11-19T04:14:29;16;15;
83484;PMS5003;73420;32.678;-85.380;2023-11-19T04:16:54;15;15;
83484;PMS5003;73420;32.678;-85.380;2023-11-19T04:19:20;12;12;
83484;PMS5003;73420;32.678;-85.380;2023-11-19T04:21:45;16;15;
83484;PMS5003;73420;32.678;-85.380;2023-11-19T04:24:11;16;16;
83484;PMS5003;73420;32.678;-85.380;2023-11-19T04:26:40;15;14;
83484;PMS5003;73420;32.678;-85.380;2023-11-19T04:29:02;14;14;
83484;PMS5003;73420;32.678;-85.380;2023-11-19T04:31:29;16;15;
83484;PMS5003;73420;32.678;-85.380;2023-11-19T04:33:53;16;14;
83484;PMS5003;73420;32.678;-85.380;2023-11-19T04:36:19;16;14;
83484;PMS5003;73420;32.678;-85.380;2023-11-19T04:38:49;15;14;
83484;PMS5003;73420;32.678;-85.380;2023-11-19T04:41:10;16;15;
83484;PMS5003;73420;32.678;-85.380;2023-11-19T04:43:35;17;15;
83484;PMS5003;73420;32.678;-85.380;2023-11-19T04:46:03;16;15;
83484;PMS5003;73420;32.678;-85.380;2023-11-19T04:48:27;16;16;
83484;PMS5003;73420;32.678;-85.380;2023-11-19T04:50:53;15;15;
83484;PMS5003;73420;32.678;-85.380;2023-11-19T04:53:18;13;13;
83484;PMS5003;73420;32.678;-85.380;2023-11-19T04:55:43;16;16;
83484;PMS5003;73420;32.678;-85.380;2023-11-19T04:58:09;15;15;
83484;PMS5003;73420;32.678;-85.380;2023-11-19T05:00:34;12;12;
83484;PMS5003;73420;32.678;-85.380;2023-11-19T05:03:00;16;13;
83484;PMS5003;73420;32.678;-85.380;2023-11-19T05:05:25;16;15;
83484;PMS5003;73420;32.678;-85.380;2023-11-19T05:07:51;16;16;
83484;PMS5003;73420;32.678;-85.380;2023-11-19T05:10:16;13;13;
83484;PMS5003;73420;32.678;-85.380;2023-11-19T05:12:42;21;21;
83484;PMS5003;73420;32.678;-85.380;2023-11-19T05:15:08;16;16;
83484;PMS5003;73420;32.678;-85.380;2023-11-19T05:17:33;14;14;
83484;PMS5003;73420;32.678;-85.380;2023-11-19T05:19:59;13;13;
83484;PMS5003;73420;32.678;-85.380;2023-11-19T05:22:24;15;15;
83484;PMS5003;73420;32.678;-85.380;2023-11-19T05:24:49;21;19;
83484;PMS5003;73420;32.678;-85.380;2023-11-19T05:27:15;17;16;
83484;PMS5003;73420;32.678;-85.380;2023-11-19T05:29:40;14;14;
83484;PMS5003;73420;32.678;-85.380;2023-11-19T05:32:05;16;16;
83484;PMS5003;73420;32.678;-85.380;2023-11-19T05:34:31;14;14;
83484;PMS5003;73420;32.678;-85.380;2023-11-19T05:36:57;19;18;
83484;PMS5003;73420;32.678;-85.380;2023-11-19T05:39:23;14;14;
83484;PMS5003;73420;32.678;-85.380;2023-11-19T05:41:48;14;13;
83484;PMS5003;73420;32.678;-85.380;2023-11-19T05:44:13;18;18;
83484;PMS5003;73420;32.678;-85.380;2023-11-19T05:46:39;14;14;
83484;PMS5003;73420;32.678;-85.380;2023-11-19T05:49:04;13;13;
83484;PMS5003;73420;32.678;-85.380;2023-11-19T05:51:30;17;17;
83484;PMS5003;73420;32.678;-85.380;2023-11-19T05:53:55;17;17;
83484;PMS5003;73420;32.678;-85.380;2023-11-19T05:56:21;14;14;
83484;PMS5003;73420;32.678;-85.380;2023-11-19T05:58:46;17;15;
83484;PMS5003;73420;32.678;-85.380;2023-11-19T06:01:11;17;17;
83484;PMS5003;73420;32.678;-85.380;2023-11-19T06:03:37;14;14;
83484;PMS5003;73420;32.678;-85.380;2023-11-19T06:06:02;15;15;
83484;PMS5003;73420;32.678;-85.380;2023-11-19T06:08:28;13;12;
83484;PMS5003;73420;32.678;-85.380;2023-11-19T06:10:53;13;13;
83484;PMS5003;73420;32.678;-85.380;2023-11-19T06:13:19;15;14;
83484;PMS5003;73420;32.678;-85.380;2023-11-19T06:15:44;18;18;
83484;PMS5003;73420;32.678;-85.380;2023-11-19T06:18:10;18;17;
83484;PMS5003;73420;32.678;-85.380;2023-11-19T06:20:36;15;15;
83484;PMS5003;73420;32.678;-85.380;2023-11-19T06:23:01;14;14;
83484;PMS5003;73420;32.678;-85.380;2023-11-19T06:25:26;15;14;
83484;PMS5003;73420;32.678;-85.380;2023-11-19T06:27:52;14;14;
83484;PMS5003;73420;32.678;-85.380;2023-11-19T06:30:18;16;16;
83484;PMS5003;73420;32.678;-85.380;2023-11-19T06:32:43;18;17;
83484;PMS5003;73420;32.678;-85.380;2023-11-19T06:35:09;19;18;
83484;PMS5003;73420;32.678;-85.380;2023-11-19T06:37:34;18;16;
83484;PMS5003;73420;32.678;-85.380;2023-11-19T06:40:02;16;16;
83484;PMS5003;73420;32.678;-85.380;2023-11-19T06:42:25;15;15;
83484;PMS5003;73420;32.678;-85.380;2023-11-19T06:44:51;14;14;
83484;PMS5003;73420;32.678;-85.380;2023-11-19T06:47:16;16;16;
83484;PMS5003;73420;32.678;-85.380;2023-11-19T06:49:43;15;14;
83484;PMS5003;73420;32.678;-85.380;2023-11-19T06:52:08;16;15;
83484;PMS5003;73420;32.678;-85.380;2023-11-19T06:54:33;16;16;
83484;PMS5003;73420;32.678;-85.380;2023-11-19T06:56:59;16;15;
83484;PMS5003;73420;32.678;-85.380;2023-11-19T06:59:24;17;17;
83484;PMS5003;73420;32.678;-85.380;2023-11-19T07:01:50;18;17;
83484;PMS5003;73420;32.678;-85.380;2023-11-19T07:04:16;13;13;
83484;PMS5003;73420;32.678;-85.380;2023-11-19T07:06:41;19;17;
83484;PMS5003;73420;32.678;-85.380;2023-11-19T07:09:06;17;17;
83484;PMS5003;73420;32.678;-85.380;2023-11-19T07:11:32;15;15;
83484;PMS5003;73420;32.678;-85.380;2023-11-19T07:13:57;16;16;
83484;PMS5003;73420;32.678;-85.380;2023-11-19T07:16:23;21;20;
83484;PMS5003;73420;32.678;-85.380;2023-11-19T07:18:48;18;17;
83484;PMS5003;73420;32.678;-85.380;2023-11-19T07:21:14;21;20;
83484;PMS5003;73420;32.678;-85.380;2023-11-19T07:23:40;17;17;
83484;PMS5003;73420;32.678;-85.380;2023-11-19T07:26:06;21;20;
83484;PMS5003;73420;32.678;-85.380;2023-11-19T07:28:31;20;18;
83484;PMS5003;73420;32.678;-85.380;2023-11-19T07:30:56;18;17;
83484;PMS5003;73420;32.678;-85.380;2023-11-19T07:33:21;14;13;
83484;PMS5003;73420;32.678;-85.380;2023-11-19T07:35:47;19;18;
83484;PMS5003;73420;32.678;-85.380;2023-11-19T07:38:12;16;15;
83484;PMS5003;73420;32.678;-85.380;2023-11-19T07:40:38;19;16;
83484;PMS5003;73420;32.678;-85.380;2023-11-19T07:43:04;15;15;
83484;PMS5003;73420;32.678;-85.380;2023-11-19T07:45:29;18;16;
83484;PMS5003;73420;32.678;-85.380;2023-11-19T07:47:55;17;16;
83484;PMS5003;73420;32.678;-85.380;2023-11-19T07:50:20;19;18;
83484;PMS5003;73420;32.678;-85.380;2023-11-19T07:52:46;19;19;
83484;PMS5003;73420;32.678;-85.380;2023-11-19T07:55:11;19;18;
83484;PMS5003;73420;32.678;-85.380;2023-11-19T07:57:36;22;22;
83484;PMS5003;73420;32.678;-85.380;2023-11-19T08:00:02;18;18;
83484;PMS5003;73420;32.678;-85.380;2023-11-19T08:02:28;21;21;
83484;PMS5003;73420;32.678;-85.380;2023-11-19T08:04:53;21;21;
83484;PMS5003;73420;32.678;-85.380;2023-11-19T08:07:19;22;21;
83484;PMS5003;73420;32.678;-85.380;2023-11-19T08:09:44;22;21;
83484;PMS5003;73420;32.678;-85.380;2023-11-19T08:12:10;19;19;
83484;PMS5003;73420;32.678;-85.380;2023-11-19T08:14:35;16;16;
83484;PMS5003;73420;32.678;-85.380;2023-11-19T08:17:02;17;17;
83484;PMS5003;73420;32.678;-85.380;2023-11-19T08:19:26;20;19;
83484;PMS5003;73420;32.678;-85.380;2023-11-19T08:21:51;19;18;
83484;PMS5003;73420;32.678;-85.380;2023-11-19T08:24:17;19;19;
83484;PMS5003;73420;32.678;-85.380;2023-11-19T08:26:42;15;15;
83484;PMS5003;73420;32.678;-85.380;2023-11-19T08:29:08;18;18;
83484;PMS5003;73420;32.678;-85.380;2023-11-19T08:31:33;17;17;
83484;PMS5003;73420;32.678;-85.380;2023-11-19T08:33:58;14;14;
83484;PMS5003;73420;32.678;-85.380;2023-11-19T08:36:24;20;18;
83484;PMS5003;73420;32.678;-85.380;2023-11-19T08:38:49;19;18;
83484;PMS5003;73420;32.678;-85.380;2023-11-19T08:41:16;20;19;
83484;PMS5003;73420;32.678;-85.380;2023-11-19T08:43:40;17;16;
83484;PMS5003;73420;32.678;-85.380;2023-11-19T08:46:09;20;19;
83484;PMS5003;73420;32.678;-85.380;2023-11-19T08:48:31;17;16;
83484;PMS5003;73420;32.678;-85.380;2023-11-19T08:50:56;17;16;
83484;PMS5003;73420;32.678;-85.380;2023-11-19T08:53:22;19;18;
83484;PMS5003;73420;32.678;-85.380;2023-11-19T08:55:47;20;19;
83484;PMS5003;73420;32.678;-85.380;2023-11-19T08:58:13;15;15;
83484;PMS5003;73420;32.678;-85.380;2023-11-19T09:00:38;19;18;
83484;PMS5003;73420;32.678;-85.380;2023-11-19T09:03:04;24;23;
83484;PMS5003;73420;32.678;-85.380;2023-11-19T09:05:29;20;19;
83484;PMS5003;73420;32.678;-85.380;2023-11-19T09:07:54;19;19;
83484;PMS5003;73420;32.678;-85.380;2023-11-19T09:10:20;16;16;
83484;PMS5003;73420;32.678;-85.380;2023-11-19T09:12:46;19;19;
83484;PMS5003;73420;32.678;-85.380;2023-11-19T09:15:11;20;17;
83484;PMS5003;73420;32.678;-85.380;2023-11-19T09:17:36;17;17;
83484;PMS5003;73420;32.678;-85.380;2023-11-19T09:20:02;22;21;
83484;PMS5003;73420;32.678;-85.380;2023-11-19T09:22:27;17;16;
83484;PMS5003;73420;32.678;-85.380;2023-11-19T09:24:52;18;17;
83484;PMS5003;73420;32.678;-85.380;2023-11-19T09:27:18;18;18;
83484;PMS5003;73420;32.678;-85.380;2023-11-19T09:29:43;19;18;
83484;PMS5003;73420;32.678;-85.380;2023-11-19T09:32:09;19;19;
83484;PMS5003;73420;32.678;-85.380;2023-11-19T09:34:34;19;18;
83484;PMS5003;73420;32.678;-85.380;2023-11-19T09:37:00;17;16;
83484;PMS5003;73420;32.678;-85.380;2023-11-19T09:39:25;18;18;
83484;PMS5003;73420;32.678;-85.380;2023-11-19T09:41:50;18;17;
83484;PMS5003;73420;32.678;-85.380;2023-11-19T09:44:16;15;15;
83484;PMS5003;73420;32.678;-85.380;2023-11-19T09:46:41;16;16;
83484;PMS5003;73420;32.678;-85.380;2023-11-19T09:49:06;19;18;
83484;PMS5003;73420;32.678;-85.380;2023-11-19T09:51:32;16;15;
83484;PMS5003;73420;32.678;-85.380;2023-11-19T09:53:58;16;15;
83484;PMS5003;73420;32.678;-85.380;2023-11-19T09:56:23;18;17;
83484;PMS5003;73420;32.678;-85.380;2023-11-19T09:58:49;18;17;
83484;PMS5003;73420;32.678;-85.380;2023-11-19T10:01:14;19;19;
83484;PMS5003;73420;32.678;-85.380;2023-11-19T10:03:39;21;19;
83484;PMS5003;73420;32.678;-85.380;2023-11-19T10:06:04;20;20;
83484;PMS5003;73420;32.678;-85.380;2023-11-19T10:08:30;19;19;
83484;PMS5003;73420;32.678;-85.380;2023-11-19T10:10:55;18;18;
83484;PMS5003;73420;32.678;-85.380;2023-11-19T10:13:22;18;17;
83484;PMS5003;73420;32.678;-85.380;2023-11-19T10:15:47;21;20;
83484;PMS5003;73420;32.678;-85.380;2023-11-19T10:18:13;18;18;
83484;PMS5003;73420;32.678;-85.380;2023-11-19T10:20:37;18;17;
83484;PMS5003;73420;32.678;-85.380;2023-11-19T10:23:03;19;18;
83484;PMS5003;73420;32.678;-85.380;2023-11-19T10:25:28;22;21;
83484;PMS5003;73420;32.678;-85.380;2023-11-19T10:27:53;17;17;
83484;PMS5003;73420;32.678;-85.380;2023-11-19T10:30:19;20;19;
83484;PMS5003;73420;32.678;-85.380;2023-11-19T10:32:44;21;21;
83484;PMS5003;73420;32.678;-85.380;2023-11-19T10:35:10;17;17;
83484;PMS5003;73420;32.678;-85.380;2023-11-19T10:37:35;20;19;
83484;PMS5003;73420;32.678;-85.380;2023-11-19T10:40:06;19;18;
83484;PMS5003;73420;32.678;-85.380;2023-11-19T10:42:27;18;18;
83484;PMS5003;73420;32.678;-85.380;2023-11-19T10:44:52;23;22;
83484;PMS5003;73420;32.678;-85.380;2023-11-19T10:47:18;21;19;
83484;PMS5003;73420;32.678;-85.380;2023-11-19T10:49:43;16;15;
83484;PMS5003;73420;32.678;-85.380;2023-11-19T10:52:08;20;20;
83484;PMS5003;73420;32.678;-85.380;2023-11-19T10:54:33;17;16;
83484;PMS5003;73420;32.678;-85.380;2023-11-19T10:56:58;18;18;
83484;PMS5003;73420;32.678;-85.380;2023-11-19T10:59:24;20;19;
83484;PMS5003;73420;32.678;-85.380;2023-11-19T11:01:50;16;15;
83484;PMS5003;73420;32.678;-85.380;2023-11-19T11:04:15;18;17;
83484;PMS5003;73420;32.678;-85.380;2023-11-19T11:06:40;19;19;
83484;PMS5003;73420;32.678;-85.380;2023-11-19T11:09:06;19;19;
83484;PMS5003;73420;32.678;-85.380;2023-11-19T11:11:31;18;17;
83484;PMS5003;73420;32.678;-85.380;2023-11-19T11:13:57;18;18;
83484;PMS5003;73420;32.678;-85.380;2023-11-19T11:16:22;15;15;
83484;PMS5003;73420;32.678;-85.380;2023-11-19T11:18:48;16;16;
83484;PMS5003;73420;32.678;-85.380;2023-11-19T11:21:14;18;18;
83484;PMS5003;73420;32.678;-85.380;2023-11-19T11:23:56;17;17;
83484;PMS5003;73420;32.678;-85.380;2023-11-19T11:26:09;16;16;
83484;PMS5003;73420;32.678;-85.380;2023-11-19T11:28:32;20;20;
83484;PMS5003;73420;32.678;-85.380;2023-11-19T11:30:59;16;16;
83484;PMS5003;73420;32.678;-85.380;2023-11-19T11:33:26;18;17;
83484;PMS5003;73420;32.678;-85.380;2023-11-19T11:35:49;21;20;
83484;PMS5003;73420;32.678;-85.380;2023-11-19T11:38:10;19;19;
83484;PMS5003;73420;32.678;-85.380;2023-11-19T11:40:36;16;16;
83484;PMS5003;73420;32.678;-85.380;2023-11-19T11:43:01;16;16;
83484;PMS5003;73420;32.678;-85.380;2023-11-19T11:50:17;19;19;
83484;PMS5003;73420;32.678;-85.380;2023-11-19T11:55:08;19;19;
83484;PMS5003;73420;32.678;-85.380;2023-11-19T11:57:36;19;18;
83484;PMS5003;73420;32.678;-85.380;2023-11-19T11:59:58;18;18;
83484;PMS5003;73420;32.678;-85.380;2023-11-19T12:02:24;17;17;
83484;PMS5003;73420;32.678;-85.380;2023-11-19T12:04:50;17;16;
83484;PMS5003;73420;32.678;-85.380;2023-11-19T12:07:16;20;19;
83484;PMS5003;73420;32.678;-85.380;2023-11-19T12:09:40;20;19;
83484;PMS5003;73420;32.678;-85.380;2023-11-19T12:12:07;23;23;
83484;PMS5003;73420;32.678;-85.380;2023-11-19T12:17:00;18;17;
83484;PMS5003;73420;32.678;-85.380;2023-11-19T12:19:21;24;22;
83484;PMS5003;73420;32.678;-85.380;2023-11-19T12:21:47;22;21;
83484;PMS5003;73420;32.678;-85.380;2023-11-19T12:24:13;19;18;
83484;PMS5003;73420;32.678;-85.380;2023-11-19T12:26:39;24;22;
83484;PMS5003;73420;32.678;-85.380;2023-11-19T12:29:04;20;18;
83484;PMS5003;73420;32.678;-85.380;2023-11-19T12:31:29;23;23;
83484;PMS5003;73420;32.678;-85.380;2023-11-19T12:33:54;19;19;
83484;PMS5003;73420;32.678;-85.380;2023-11-19T12:36:19;26;25;
83484;PMS5003;73420;32.678;-85.380;2023-11-19T12:38:44;26;25;
83484;PMS5003;73420;32.678;-85.380;2023-11-19T12:41:10;23;23;
83484;PMS5003;73420;32.678;-85.380;2023-11-19T12:43:35;22;21;
83484;PMS5003;73420;32.678;-85.380;2023-11-19T12:46:01;21;21;
83484;PMS5003;73420;32.678;-85.380;2023-11-19T12:48:26;24;21;
83484;PMS5003;73420;32.678;-85.380;2023-11-19T12:50:51;26;25;
83484;PMS5003;73420;32.678;-85.380;2023-11-19T12:53:16;22;21;
83484;PMS5003;73420;32.678;-85.380;2023-11-19T12:55:41;26;25;
83484;PMS5003;73420;32.678;-85.380;2023-11-19T12:58:06;23;23;
83484;PMS5003;73420;32.678;-85.380;2023-11-19T13:00:32;26;25;
83484;PMS5003;73420;32.678;-85.380;2023-11-19T13:02:57;25;24;
83484;PMS5003;73420;32.678;-85.380;2023-11-19T13:05:24;24;24;
83484;PMS5003;73420;32.678;-85.380;2023-11-19T13:07:48;26;26;
83484;PMS5003;73420;32.678;-85.380;2023-11-19T13:10:13;25;24;
83484;PMS5003;73420;32.678;-85.380;2023-11-19T13:12:39;28;28;
83484;PMS5003;73420;32.678;-85.380;2023-11-19T13:15:04;30;29;
83484;PMS5003;73420;32.678;-85.380;2023-11-19T13:17:29;25;24;
83484;PMS5003;73420;32.678;-85.380;2023-11-19T13:19:54;28;27;
83484;PMS5003;73420;32.678;-85.380;2023-11-19T13:22:19;27;26;
83484;PMS5003;73420;32.678;-85.380;2023-11-19T13:24:44;26;24;
83484;PMS5003;73420;32.678;-85.380;2023-11-19T13:27:10;24;24;
83484;PMS5003;73420;32.678;-85.380;2023-11-19T13:29:36;26;25;
83484;PMS5003;73420;32.678;-85.380;2023-11-19T13:32:02;33;33;
83484;PMS5003;73420;32.678;-85.380;2023-11-19T13:34:27;26;25;
83484;PMS5003;73420;32.678;-85.380;2023-11-19T13:36:53;30;28;
83484;PMS5003;73420;32.678;-85.380;2023-11-19T13:39:19;24;23;
83484;PMS5003;73420;32.678;-85.380;2023-11-19T13:41:44;19;19;
83484;PMS5003;73420;32.678;-85.380;2023-11-19T13:44:10;19;17;
83484;PMS5003;73420;32.678;-85.380;2023-11-19T13:46:35;16;16;
83484;PMS5003;73420;32.678;-85.380;2023-11-19T13:49:02;22;21;
83484;PMS5003;73420;32.678;-85.380;2023-11-19T13:51:26;20;18;
83484;PMS5003;73420;32.678;-85.380;2023-11-19T13:53:52;15;15;
83484;PMS5003;73420;32.678;-85.380;2023-11-19T13:56:17;20;18;
83484;PMS5003;73420;32.678;-85.380;2023-11-19T13:58:43;16;16;
83484;PMS5003;73420;32.678;-85.380;2023-11-19T14:01:09;19;18;
83484;PMS5003;73420;32.678;-85.380;2023-11-19T14:03:34;15;15;
83484;PMS5003;73420;32.678;-85.380;2023-11-19T14:06:00;17;16;
83484;PMS5003;73420;32.678;-85.380;2023-11-19T14:08:25;18;16;
83484;PMS5003;73420;32.678;-85.380;2023-11-19T14:10:50;19;19;
83484;PMS5003;73420;32.678;-85.380;2023-11-19T14:13:16;15;15;
83484;PMS5003;73420;32.678;-85.380;2023-11-19T14:15:41;15;15;
83484;PMS5003;73420;32.678;-85.380;2023-11-19T14:18:06;17;16;
83484;PMS5003;73420;32.678;-85.380;2023-11-19T14:20:32;17;15;
83484;PMS5003;73420;32.678;-85.380;2023-11-19T14:22:57;13;13;
83484;PMS5003;73420;32.678;-85.380;2023-11-19T14:25:23;15;14;
83484;PMS5003;73420;32.678;-85.380;2023-11-19T14:27:48;16;16;
83484;PMS5003;73420;32.678;-85.380;2023-11-19T14:30:14;15;15;
83484;PMS5003;73420;32.678;-85.380;2023-11-19T14:32:39;15;15;
83484;PMS5003;73420;32.678;-85.380;2023-11-19T14:35:04;17;16;
83484;PMS5003;73420;32.678;-85.380;2023-11-19T14:37:30;17;17;
83484;PMS5003;73420;32.678;-85.380;2023-11-19T14:39:55;20;20;
83484;PMS5003;73420;32.678;-85.380;2023-11-19T14:42:20;14;13;
83484;PMS5003;73420;32.678;-85.380;2023-11-19T14:44:46;17;17;
83484;PMS5003;73420;32.678;-85.380;2023-11-19T14:47:11;14;13;
83484;PMS5003;73420;32.678;-85.380;2023-11-19T14:49:36;15;15;
83484;PMS5003;73420;32.678;-85.380;2023-11-19T14:52:02;15;15;
83484;PMS5003;73420;32.678;-85.380;2023-11-19T14:54:27;16;15;
83484;PMS5003;73420;32.678;-85.380;2023-11-19T14:56:52;13;13;
83484;PMS5003;73420;32.678;-85.380;2023-11-19T14:59:18;12;11;
83484;PMS5003;73420;32.678;-85.380;2023-11-19T15:01:44;15;15;
83484;PMS5003;73420;32.678;-85.380;2023-11-19T15:04:09;17;17;
83484;PMS5003;73420;32.678;-85.380;2023-11-19T15:06:34;18;17;
83484;PMS5003;73420;32.678;-85.380;2023-11-19T15:08:59;15;15;
83484;PMS5003;73420;32.678;-85.380;2023-11-19T15:11:25;16;15;
83484;PMS5003;73420;32.678;-85.380;2023-11-19T15:13:50;16;16;
83484;PMS5003;73420;32.678;-85.380;2023-11-19T15:16:15;16;16;
83484;PMS5003;73420;32.678;-85.380;2023-11-19T15:18:40;13;13;
83484;PMS5003;73420;32.678;-85.380;2023-11-19T15:21:06;15;15;
83484;PMS5003;73420;32.678;-85.380;2023-11-19T15:23:31;21;19;
83484;PMS5003;73420;32.678;-85.380;2023-11-19T15:25:56;23;23;
83484;PMS5003;73420;32.678;-85.380;2023-11-19T15:28:22;37;34;
83484;PMS5003;73420;32.678;-85.380;2023-11-19T15:30:48;25;25;
83484;PMS5003;73420;32.678;-85.380;2023-11-19T15:33:13;25;25;
83484;PMS5003;73420;32.678;-85.380;2023-11-19T15:35:38;23;22;
83484;PMS5003;73420;32.678;-85.380;2023-11-19T15:38:04;20;20;
83484;PMS5003;73420;32.678;-85.380;2023-11-19T15:40:29;22;22;
83484;PMS5003;73420;32.678;-85.380;2023-11-19T15:42:55;17;17;
83484;PMS5003;73420;32.678;-85.380;2023-11-19T15:45:20;22;22;
83484;PMS5003;73420;32.678;-85.380;2023-11-19T15:47:45;17;16;